Time;durP1;ratioP1;P1;durP2;ratioP2;P2;SDS_P1;SDS_P2;PMS_P1;PMS_P2;Temp;Humidity;BMP_temperature;BMP_pressure;BME280_temperature;BME280_humidity;BME280_pressure;Samples;Min_cycle;Max_cycle;Signal;HPM_P1;HPM_P2
2023/04/27 00:02:12;;;;;;;28.80;11.30;;;;;;;5.18;53.30;99122.68;105433;1256;100844;-72
2023/04/27 00:04:40;;;;;;;25.80;10.60;;;;;;;5.19;53.37;99123.70;105477;1257;107672;-72
2023/04/27 00:07:08;;;;;;;27.40;11.10;;;;;;;5.19;53.03;99123.84;105485;1251;97915;-78
2023/04/27 00:09:37;;;;;;;26.00;10.80;;;;;;;5.18;53.29;99122.30;105355;1251;96587;-71
2023/04/27 00:12:05;;;;;;;28.90;11.10;;;;;;;5.18;53.45;99126.89;105399;1256;109934;-71
2023/04/27 00:14:33;;;;;;;25.00;9.70;;;;;;;5.18;53.62;99124.27;105269;1255;101380;-71
2023/04/27 00:17:01;;;;;;;29.60;11.50;;;;;;;5.16;53.67;99122.95;105360;1268;107259;-70
2023/04/27 00:19:29;;;;;;;26.30;10.00;;;;;;;5.17;53.52;99119.36;105329;1259;96648;-72
2023/04/27 00:21:58;;;;;;;24.90;9.80;;;;;;;5.17;53.37;99124.30;105481;1251;97082;-73
2023/04/27 00:24:27;;;;;;;23.40;9.90;;;;;;;5.16;53.66;99123.14;105416;1255;111434;-72
2023/04/27 00:26:56;;;;;;;25.50;10.00;;;;;;;5.15;53.42;99122.66;105438;1251;101108;-76
2023/04/27 00:29:24;;;;;;;30.20;10.80;;;;;;;5.14;53.82;99120.05;105505;1273;107211;-72
2023/04/27 00:31:52;;;;;;;27.30;10.40;;;;;;;5.14;53.85;99119.71;105380;1254;97880;-72
2023/04/27 00:34:20;;;;;;;25.50;10.20;;;;;;;5.13;53.89;99125.75;105227;1256;97064;-72
2023/04/27 00:36:48;;;;;;;24.90;9.50;;;;;;;5.13;53.95;99126.09;105416;1255;109366;-72
2023/04/27 00:39:16;;;;;;;27.70;10.30;;;;;;;5.13;53.89;99123.10;105383;1251;100820;-74
2023/04/27 00:41:45;;;;;;;26.40;10.80;;;;;;;5.13;54.08;99121.69;105442;1255;107599;-72
2023/04/27 00:44:12;;;;;;;26.90;10.10;;;;;;;5.13;54.02;99126.96;105294;1257;96596;-71
2023/04/27 00:46:40;;;;;;;28.50;10.00;;;;;;;5.13;54.04;99126.27;105278;1257;97077;-71
2023/04/27 00:49:08;;;;;;;25.40;10.60;;;;;;;5.14;54.04;99126.20;105079;1259;109882;-71
2023/04/27 00:51:36;;;;;;;26.60;10.80;;;;;;;5.13;54.08;99125.55;105340;1254;100605;-72
2023/04/27 00:54:05;;;;;;;25.20;10.00;;;;;;;5.14;54.27;99124.80;105198;1259;106957;-72
2023/04/27 00:56:33;;;;;;;26.80;10.40;;;;;;;5.16;54.23;99121.91;105233;1259;96604;-72
2023/04/27 00:59:01;;;;;;;25.50;10.10;;;;;;;5.17;54.13;99122.70;105351;1259;97099;-71
2023/04/27 01:01:29;;;;;;;29.90;11.10;;;;;;;5.18;54.27;99126.73;105080;1269;109888;-79
2023/04/27 01:03:57;;;;;;;27.70;10.80;;;;;;;5.16;54.18;99126.27;105184;1254;100478;-74
2023/04/27 01:06:27;;;;;;;28.60;11.30;;;;;;;5.14;54.29;99123.40;105284;1267;107629;-72
2023/04/27 01:08:55;;;;;;;27.40;11.00;;;;;;;5.11;54.25;99127.40;105037;1257;96649;-72
2023/04/27 01:11:23;;;;;;;30.50;10.40;;;;;;;5.13;54.57;99122.55;105327;1256;97155;-72
2023/04/27 01:13:53;;;;;;;28.90;10.90;;;;;;;5.12;54.41;99126.80;105045;1256;109494;-72
2023/04/27 01:16:21;;;;;;;26.80;10.70;;;;;;;5.11;54.57;99129.00;105157;1257;100570;-73
2023/04/27 01:18:49;;;;;;;25.70;10.80;;;;;;;5.10;54.54;99126.92;105261;1260;107225;-72
2023/04/27 01:21:17;;;;;;;26.00;10.80;;;;;;;5.08;54.74;99132.47;105299;1257;96675;-71
2023/04/27 01:23:46;;;;;;;28.90;10.00;;;;;;;5.06;54.73;99134.33;105193;1256;97116;-72
2023/04/27 01:26:15;;;;;;;29.90;11.20;;;;;;;5.06;54.68;99132.41;105272;1259;109614;-71
2023/04/27 01:28:43;;;;;;;29.40;10.90;;;;;;;5.06;54.82;99132.91;105377;1254;98812;-77
2023/04/27 01:31:11;;;;;;;22.60;9.20;;;;;;;5.09;54.81;99135.98;105291;1257;107604;-72
2023/04/27 01:33:40;;;;;;;25.30;10.30;;;;;;;5.07;54.87;99139.39;105187;1260;96554;-72
2023/04/27 01:36:08;;;;;;;24.30;9.90;;;;;;;5.06;54.77;99139.95;105218;1255;97550;-72
2023/04/27 01:38:36;;;;;;;26.40;9.90;;;;;;;5.06;54.84;99142.61;105260;1254;110500;-72
2023/04/27 01:41:07;;;;;;;23.70;10.60;;;;;;;5.04;54.94;99139.69;105309;1257;100879;-72
2023/04/27 01:43:36;;;;;;;25.60;9.90;;;;;;;5.04;55.05;99141.61;105518;1254;106226;-72
2023/04/27 01:46:12;;;;;;;29.80;11.80;;;;;;;5.06;55.14;99137.87;105250;1260;96706;-72
2023/04/27 01:48:40;;;;;;;28.00;10.50;;;;;;;5.05;55.07;99139.46;105103;1259;97119;-71
2023/04/27 01:51:08;;;;;;;30.20;11.50;;;;;;;5.05;55.09;99139.13;105156;1254;109358;-72
2023/04/27 01:53:36;;;;;;;25.70;10.90;;;;;;;5.05;55.29;99142.98;105267;1256;101003;-71
2023/04/27 01:56:05;;;;;;;25.40;10.90;;;;;;;5.05;55.18;99139.29;105040;1268;107618;-72
2023/04/27 01:58:33;;;;;;;26.40;10.40;;;;;;;5.04;55.18;99142.85;105225;1258;96594;-72
2023/04/27 02:01:01;;;;;;;27.40;12.10;;;;;;;5.02;55.37;99141.38;105273;1257;97144;-72
2023/04/27 02:03:29;;;;;;;25.70;10.60;;;;;;;5.02;55.34;99145.23;105025;1259;109939;-72
2023/04/27 02:05:57;;;;;;;27.40;10.60;;;;;;;5.01;55.36;99141.95;105044;1275;100869;-72
2023/04/27 02:08:25;;;;;;;26.70;10.50;;;;;;;5.00;55.46;99145.00;105324;1254;107635;-73
2023/04/27 02:10:54;;;;;;;26.60;10.20;;;;;;;4.99;55.52;99142.92;105055;1256;96602;-72
2023/04/27 02:13:22;;;;;;;25.60;9.50;;;;;;;5.00;55.58;99144.11;105253;1257;97074;-72
2023/04/27 02:15:50;;;;;;;28.30;9.70;;;;;;;4.99;55.56;99146.82;105239;1259;110059;-72
2023/04/27 02:18:19;;;;;;;25.00;9.50;;;;;;;4.97;55.53;99145.67;105343;1254;98846;-72
2023/04/27 02:20:46;;;;;;;29.50;10.00;;;;;;;4.97;55.61;99149.90;105181;1260;107614;-72
2023/04/27 02:23:14;;;;;;;23.70;9.70;;;;;;;4.97;55.64;99150.08;105004;1254;96522;-76
2023/04/27 02:25:45;;;;;;;36.10;10.30;;;;;;;4.94;55.72;99148.77;105305;1256;97128;-71
2023/04/27 02:28:14;;;;;;;26.30;10.50;;;;;;;4.94;55.77;99154.78;105276;1259;109864;-73
2023/04/27 02:30:42;;;;;;;30.90;10.10;;;;;;;4.93;55.88;99151.63;105080;1260;100191;-72
2023/04/27 02:33:10;;;;;;;30.20;9.90;;;;;;;4.93;55.81;99152.34;105192;1259;107557;-71
2023/04/27 02:35:38;;;;;;;27.40;9.50;;;;;;;4.92;55.93;99149.73;105086;1257;97405;-74
2023/04/27 02:38:06;;;;;;;24.70;9.60;;;;;;;4.91;55.90;99154.70;105290;1254;97161;-72
2023/04/27 02:40:34;;;;;;;25.50;10.50;;;;;;;4.94;56.03;99154.60;104997;1259;110018;-72
2023/04/27 02:43:03;;;;;;;24.00;9.90;;;;;;;4.96;56.09;99152.95;105234;1256;99955;-72
2023/04/27 02:45:30;;;;;;;29.00;10.50;;;;;;;4.95;55.99;99157.36;105215;1261;107604;-71
2023/04/27 02:47:58;;;;;;;25.10;10.10;;;;;;;4.94;56.14;99161.62;104979;1260;96602;-71
2023/04/27 02:50:26;;;;;;;26.20;10.40;;;;;;;4.93;56.08;99158.85;105110;1265;97103;-72
2023/04/27 02:52:55;;;;;;;27.80;10.30;;;;;;;4.91;56.20;99161.41;105281;1257;109840;-71
2023/04/27 02:55:23;;;;;;;24.50;10.40;;;;;;;4.89;56.15;99162.94;105202;1260;100751;-72
2023/04/27 02:57:51;;;;;;;28.10;9.90;;;;;;;4.87;56.25;99163.20;105009;1276;107592;-72
2023/04/27 03:00:19;;;;;;;29.00;9.60;;;;;;;4.85;56.19;99161.86;105279;1257;96663;-73
2023/04/27 03:02:46;;;;;;;22.90;9.50;;;;;;;4.85;56.32;99165.95;105316;1259;97048;-79
2023/04/27 03:05:15;;;;;;;26.60;9.30;;;;;;;4.86;56.30;99168.70;105208;1254;109888;-76
2023/04/27 03:07:43;;;;;;;23.70;9.00;;;;;;;4.86;56.36;99170.99;105228;1257;100152;-72
2023/04/27 03:10:11;;;;;;;25.30;9.40;;;;;;;4.86;56.51;99172.02;105148;1259;106701;-72
2023/04/27 03:12:39;;;;;;;24.20;9.60;;;;;;;4.84;56.31;99168.44;105275;1260;96686;-72
2023/04/27 03:15:08;;;;;;;25.10;8.70;;;;;;;4.83;56.47;99170.77;105236;1259;97076;-72
2023/04/27 03:17:35;;;;;;;23.00;8.90;;;;;;;4.82;56.34;99171.88;105310;1254;109575;-71
2023/04/27 03:20:08;;;;;;;23.40;9.00;;;;;;;4.82;56.52;99171.88;105201;1259;100904;-72
2023/04/27 03:22:36;;;;;;;26.00;8.80;;;;;;;4.81;56.45;99176.30;105124;1271;106730;-71
2023/04/27 03:25:04;;;;;;;24.70;8.90;;;;;;;4.82;56.70;99177.15;105058;1259;96670;-72
2023/04/27 03:27:32;;;;;;;26.40;9.40;;;;;;;4.83;56.57;99176.36;105299;1257;97710;-72
2023/04/27 03:30:00;;;;;;;23.10;8.40;;;;;;;4.82;56.79;99175.02;105237;1257;109953;-74
2023/04/27 03:32:28;;;;;;;24.10;8.80;;;;;;;4.81;56.69;99174.89;105000;1259;100906;-72
2023/04/27 03:34:56;;;;;;;22.60;8.70;;;;;;;4.81;56.71;99177.55;105236;1267;107071;-73
2023/04/27 03:37:24;;;;;;;22.20;8.30;;;;;;;4.81;56.73;99178.58;105057;1259;97842;-73
2023/04/27 03:39:51;;;;;;;27.30;9.40;;;;;;;4.80;56.80;99182.32;105250;1259;96689;-71
2023/04/27 03:42:19;;;;;;;20.30;8.40;;;;;;;4.83;56.84;99184.48;105289;1257;109894;-72
2023/04/27 03:44:47;;;;;;;29.20;10.60;;;;;;;4.83;56.86;99190.27;105488;1259;99211;-72
2023/04/27 03:47:15;;;;;;;21.10;8.50;;;;;;;4.83;56.84;99189.23;105215;1268;107395;-81
2023/04/27 03:49:42;;;;;;;24.60;8.40;;;;;;;4.81;56.87;99192.81;104991;1259;96692;-72
2023/04/27 03:52:10;;;;;;;28.00;9.40;;;;;;;4.82;56.91;99193.83;105327;1256;98305;-72
2023/04/27 03:54:38;;;;;;;23.60;8.60;;;;;;;4.84;57.00;99198.11;105001;1260;109650;-72
2023/04/27 03:57:06;;;;;;;24.80;9.00;;;;;;;4.86;57.00;99200.86;105065;1267;100931;-74
2023/04/27 03:59:34;;;;;;;23.20;8.30;;;;;;;4.87;57.01;99200.96;105170;1260;107622;-72
2023/04/27 04:02:04;;;;;;;25.90;8.60;;;;;;;4.91;57.11;99204.66;105045;1266;96606;-72
2023/04/27 04:04:32;;;;;;;21.60;8.70;;;;;;;4.92;57.10;99206.89;105066;1267;97026;-72
2023/04/27 04:07:00;;;;;;;24.90;7.70;;;;;;;4.92;57.05;99208.44;105164;1258;109952;-72
2023/04/27 04:09:28;;;;;;;22.90;8.30;;;;;;;4.92;57.00;99207.41;105327;1264;100876;-72
2023/04/27 04:11:56;;;;;;;20.20;7.80;;;;;;;4.94;57.15;99213.45;105046;1266;107608;-72
2023/04/27 04:14:25;;;;;;;20.20;7.60;;;;;;;4.98;57.26;99216.09;105044;1258;96628;-74
2023/04/27 04:16:53;;;;;;;21.00;8.40;;;;;;;5.01;57.16;99219.44;105246;1257;97125;-74
2023/04/27 04:19:21;;;;;;;25.50;8.70;;;;;;;5.05;57.31;99221.37;105441;1259;109954;-73
2023/04/27 04:21:49;;;;;;;22.00;8.50;;;;;;;5.12;57.33;99223.73;105170;1259;101796;-74
2023/04/27 04:24:17;;;;;;;23.80;8.60;;;;;;;5.17;57.32;99226.95;105617;1259;107384;-77
2023/04/27 04:26:46;;;;;;;22.90;7.50;;;;;;;5.19;57.26;99229.01;105047;1260;96619;-75
2023/04/27 04:29:14;;;;;;;20.20;7.60;;;;;;;5.21;57.25;99230.82;105260;1259;97057;-77
2023/04/27 04:31:43;;;;;;;24.90;8.90;;;;;;;5.26;57.51;99233.08;108604;1253;110694;-72
2023/04/27 04:34:11;;;;;;;21.90;8.10;;;;;;;5.28;57.45;99235.77;108567;1259;100910;-72
2023/04/27 04:36:39;;;;;;;27.00;9.80;;;;;;;5.32;57.37;99238.91;108581;1253;108550;-71
2023/04/27 04:39:07;;;;;;;21.10;8.30;;;;;;;5.38;57.37;99241.98;108560;1258;94472;-72
2023/04/27 04:41:35;;;;;;;22.80;8.10;;;;;;;5.46;57.52;99253.02;108563;1253;94361;-72
2023/04/27 04:44:04;;;;;;;20.70;7.70;;;;;;;5.54;57.55;99251.41;107297;1258;109745;-73
2023/04/27 04:46:32;;;;;;;22.20;8.40;;;;;;;5.61;57.59;99253.02;105191;1264;100650;-72
2023/04/27 04:49:01;;;;;;;23.40;9.20;;;;;;;5.62;57.44;99255.75;104948;1267;107198;-73
2023/04/27 04:51:29;;;;;;;23.60;8.50;;;;;;;5.65;57.53;99255.48;105177;1260;96661;-73
2023/04/27 04:53:57;;;;;;;27.30;9.70;;;;;;;5.71;57.47;99258.69;105282;1259;97102;-72
2023/04/27 04:56:29;;;;;;;23.20;8.90;;;;;;;5.74;57.57;99263.61;105189;1255;110412;-73
2023/04/27 04:58:57;;;;;;;24.60;8.50;;;;;;;5.75;57.55;99260.40;105165;1259;100891;-72
2023/04/27 05:01:25;;;;;;;23.50;8.00;;;;;;;5.80;57.54;99265.95;105309;1263;107628;-73
2023/04/27 05:03:53;;;;;;;20.20;7.70;;;;;;;5.85;57.52;99265.71;105242;1260;97231;-72
2023/04/27 05:06:21;;;;;;;21.80;8.80;;;;;;;5.91;57.63;99269.83;105128;1260;97099;-74
2023/04/27 05:08:49;;;;;;;21.90;8.40;;;;;;;5.92;57.70;99276.09;105251;1254;109343;-72
2023/04/27 05:11:17;;;;;;;23.10;8.20;;;;;;;5.93;57.71;99280.83;105269;1260;99929;-72
2023/04/27 05:13:46;;;;;;;22.80;9.30;;;;;;;5.92;57.63;99279.81;105300;1260;107579;-74
2023/04/27 05:16:14;;;;;;;28.90;8.80;;;;;;;5.91;57.72;99282.14;105386;1267;96618;-79
2023/04/27 05:18:43;;;;;;;19.10;7.70;;;;;;;5.92;57.72;99281.19;105335;1260;97112;-75
2023/04/27 05:21:16;;;;;;;22.80;8.50;;;;;;;5.95;57.64;99283.16;105222;1264;111564;-76
2023/04/27 05:23:44;;;;;;;21.90;8.00;;;;;;;5.94;57.81;99282.69;108699;1255;101061;-73
2023/04/27 05:26:17;;;;;;;21.50;8.20;;;;;;;5.88;57.70;99285.12;106166;1260;109006;-73
2023/04/27 05:28:46;;;;;;;23.90;8.80;;;;;;;5.81;57.81;99283.91;105285;1260;96605;-72
2023/04/27 05:31:13;;;;;;;21.80;7.80;;;;;;;5.75;57.80;99289.80;108734;1256;94572;-75
2023/04/27 05:33:41;;;;;;;22.70;8.00;;;;;;;5.72;57.65;99293.84;108771;1254;109507;-74
2023/04/27 05:36:09;;;;;;;23.10;8.60;;;;;;;5.70;57.69;99295.88;108462;1254;100600;-72
2023/04/27 05:38:39;;;;;;;22.10;8.10;;;;;;;5.70;57.57;99292.31;105469;1257;107660;-75
2023/04/27 05:41:07;;;;;;;23.30;8.60;;;;;;;5.73;57.65;99298.19;105402;1257;96757;-72
2023/04/27 05:43:37;;;;;;;24.60;10.00;;;;;;;5.73;57.72;99302.19;105842;1254;96628;-74
2023/04/27 05:46:05;;;;;;;23.50;10.40;;;;;;;5.75;57.77;99303.17;106097;1257;109896;-75
2023/04/27 05:48:34;;;;;;;23.00;9.60;;;;;;;5.78;57.84;99301.63;105415;1259;100856;-71
2023/04/27 05:51:02;;;;;;;21.50;8.00;;;;;;;5.81;57.85;99301.61;105087;1268;108045;-72
2023/04/27 05:53:33;;;;;;;25.30;9.90;;;;;;;5.83;57.91;99304.73;105196;1257;96640;-72
2023/04/27 05:56:03;;;;;;;23.60;9.50;;;;;;;5.90;58.07;99304.37;105376;1257;97180;-71
2023/04/27 05:58:32;;;;;;;22.10;8.30;;;;;;;6.04;58.11;99311.29;105348;1254;109911;-72
2023/04/27 06:01:02;;;;;;;20.50;8.30;;;;;;;6.10;57.90;99311.67;105147;1264;100881;-71
2023/04/27 06:03:30;;;;;;;25.10;10.00;;;;;;;6.15;58.17;99312.30;105231;1257;107075;-72
2023/04/27 06:06:00;;;;;;;23.10;8.60;;;;;;;6.19;57.93;99311.41;105206;1257;96593;-71
2023/04/27 06:08:28;;;;;;;23.30;7.70;;;;;;;6.21;57.97;99310.10;105123;1257;96994;-71
2023/04/27 06:10:56;;;;;;;24.30;8.20;;;;;;;6.24;57.93;99313.64;105200;1260;109096;-74
2023/04/27 06:13:25;;;;;;;23.40;7.70;;;;;;;6.25;57.92;99312.70;105023;1264;100849;-72
2023/04/27 06:15:53;;;;;;;21.10;7.40;;;;;;;6.29;58.20;99313.95;105032;1257;107441;-72
2023/04/27 06:18:21;;;;;;;23.70;7.90;;;;;;;6.32;58.16;99311.84;105023;1257;96695;-72
2023/04/27 06:20:49;;;;;;;19.90;6.90;;;;;;;6.34;58.04;99316.28;105256;1256;97518;-73
2023/04/27 06:23:17;;;;;;;19.50;6.70;;;;;;;6.37;58.08;99320.34;105204;1254;110581;-72
2023/04/27 06:25:45;;;;;;;20.50;7.70;;;;;;;6.36;57.67;99322.34;105268;1257;99343;-72
2023/04/27 06:28:13;;;;;;;19.50;7.40;;;;;;;6.38;58.09;99322.80;105253;1267;107597;-74
2023/04/27 06:30:41;;;;;;;20.80;7.10;;;;;;;6.46;58.04;99324.48;105200;1254;97381;-72
2023/04/27 06:33:09;;;;;;;19.50;7.40;;;;;;;6.58;58.16;99324.56;105155;1260;97077;-72
2023/04/27 06:35:37;;;;;;;21.90;8.00;;;;;;;6.72;58.22;99323.14;105317;1254;109902;-72
2023/04/27 06:38:05;;;;;;;21.30;7.60;;;;;;;6.91;58.11;99325.67;105082;1273;102329;-80
2023/04/27 06:40:35;;;;;;;21.90;7.20;;;;;;;7.11;58.27;99326.38;105259;1267;107725;-70
2023/04/27 06:43:04;;;;;;;20.70;7.30;;;;;;;7.33;58.05;99330.80;105149;1266;96881;-72
2023/04/27 06:45:32;;;;;;;18.20;6.80;;;;;;;7.57;58.12;99331.31;105209;1254;97100;-71
2023/04/27 06:48:00;;;;;;;20.80;8.20;;;;;;;7.79;58.18;99331.08;105074;1268;108951;-71
2023/04/27 06:50:29;;;;;;;19.20;7.30;;;;;;;8.04;58.29;99329.86;104932;1260;100536;-74
2023/04/27 06:52:57;;;;;;;24.50;8.80;;;;;;;8.32;58.37;99331.58;105153;1259;107113;-71
2023/04/27 06:55:25;;;;;;;20.80;7.90;;;;;;;8.50;58.10;99332.51;105186;1267;96596;-71
2023/04/27 06:57:53;;;;;;;17.80;7.20;;;;;;;8.67;58.21;99334.51;105186;1260;98162;-74
2023/04/27 07:00:21;;;;;;;18.70;7.40;;;;;;;8.90;58.13;99333.65;104979;1258;109938;-72
2023/04/27 07:02:50;;;;;;;20.90;7.70;;;;;;;9.05;58.32;99330.05;105206;1258;101003;-71
2023/04/27 07:05:18;;;;;;;20.90;8.00;;;;;;;9.25;58.44;99328.15;105306;1267;105285;-77
2023/04/27 07:07:46;;;;;;;23.00;9.20;;;;;;;9.38;58.36;99332.79;105173;1257;96602;-70
2023/04/27 07:10:14;;;;;;;24.60;9.50;;;;;;;9.50;58.37;99333.65;105227;1257;97045;-71
2023/04/27 07:12:43;;;;;;;24.40;9.60;;;;;;;9.56;58.46;99328.50;105255;1260;109361;-72
2023/04/27 07:15:12;;;;;;;20.10;8.30;;;;;;;9.62;58.40;99334.79;105240;1258;100743;-73
2023/04/27 07:17:40;;;;;;;26.60;9.40;;;;;;;9.64;58.10;99340.50;105031;1268;108086;-72
2023/04/27 07:20:08;;;;;;;25.70;9.20;;;;;;;9.64;57.96;99341.09;105269;1257;97938;-71
2023/04/27 07:22:36;;;;;;;26.10;10.50;;;;;;;9.48;57.12;99352.15;105247;1266;97932;-71
2023/04/27 07:25:05;;;;;;;26.40;9.90;;;;;;;9.25;57.56;99350.21;105288;1257;109632;-71
2023/04/27 07:27:34;;;;;;;26.10;9.50;;;;;;;9.14;57.59;99356.26;105307;1256;100764;-71
2023/04/27 07:30:04;;;;;;;24.90;10.20;;;;;;;8.97;57.49;99355.31;105191;1254;107620;-72
2023/04/27 07:32:32;;;;;;;24.80;10.00;;;;;;;8.73;57.54;99353.75;105203;1254;96596;-76
2023/04/27 07:35:00;;;;;;;23.60;8.80;;;;;;;8.54;57.70;99353.65;105465;1254;97064;-71
2023/04/27 07:37:28;;;;;;;23.20;9.30;;;;;;;8.46;57.79;99353.02;105272;1254;109336;-72
2023/04/27 07:39:58;;;;;;;25.30;9.60;;;;;;;8.47;57.82;99353.52;105287;1257;101156;-71
2023/04/27 07:42:27;;;;;;;22.30;9.90;;;;;;;8.45;57.76;99360.31;105039;1257;106643;-71
2023/04/27 07:44:56;;;;;;;24.60;9.20;;;;;;;8.38;57.78;99361.12;105208;1257;96609;-73
2023/04/27 07:47:24;;;;;;;29.90;9.80;;;;;;;8.31;57.61;99361.88;105035;1257;97096;-71
2023/04/27 07:49:51;;;;;;;25.90;9.40;;;;;;;8.18;57.34;99362.61;105262;1254;109734;-72
2023/04/27 07:52:19;;;;;;;24.20;9.70;;;;;;;8.02;57.36;99364.44;105063;1267;100011;-72
2023/04/27 07:54:48;;;;;;;22.50;9.40;;;;;;;7.90;57.65;99361.75;105249;1266;107628;-71
2023/04/27 07:57:16;;;;;;;24.40;9.90;;;;;;;7.86;57.62;99361.27;105225;1260;96609;-72
2023/04/27 07:59:45;;;;;;;24.90;9.70;;;;;;;7.81;57.69;99361.02;105386;1254;200352;-73
2023/04/27 08:02:13;;;;;;;22.90;8.50;;;;;;;7.74;57.62;99362.84;105177;1256;109415;-71
2023/04/27 08:04:47;;;;;;;;;;;;;;;7.68;57.66;99362.60;105249;1260;100955;-70
2023/04/27 08:07:17;;;;;;;20.90;8.20;;;;;;;7.64;57.67;99359.67;105257;1257;107759;-72
2023/04/27 08:09:46;;;;;;;22.30;9.10;;;;;;;7.72;57.79;99356.56;105184;1257;96599;-72
2023/04/27 08:12:13;;;;;;;23.00;8.10;;;;;;;7.91;57.81;99356.02;105050;1257;98180;-72
2023/04/27 08:14:41;;;;;;;18.70;7.30;;;;;;;8.13;57.89;99356.38;105373;1256;109914;-71
2023/04/27 08:17:10;;;;;;;19.20;7.20;;;;;;;8.40;57.98;99356.73;105049;1253;100877;-72
2023/04/27 08:19:39;;;;;;;18.70;6.50;;;;;;;8.72;57.95;99357.55;105223;1266;107704;-72
2023/04/27 08:22:07;;;;;;;18.50;5.70;;;;;;;8.94;57.62;99355.30;105181;1257;96727;-71
2023/04/27 08:24:36;;;;;;;20.10;6.40;;;;;;;9.07;57.63;99348.31;105309;1257;97519;-71
2023/04/27 08:27:07;;;;;;;14.00;5.50;;;;;;;9.17;57.70;99341.55;105310;1257;109963;-72
2023/04/27 08:29:35;;;;;;;20.80;5.80;;;;;;;9.29;57.71;99342.92;105228;1266;99861;-73
2023/04/27 08:32:04;;;;;;;15.60;5.00;;;;;;;9.43;57.68;99344.15;105031;1275;108086;-72
2023/04/27 08:34:32;;;;;;;16.50;5.80;;;;;;;9.53;57.64;99350.24;105085;1258;97416;-71
2023/04/27 08:37:01;;;;;;;15.90;4.80;;;;;;;9.60;57.42;99345.41;105293;1256;97020;-72
2023/04/27 08:39:29;;;;;;;16.30;5.30;;;;;;;9.72;57.43;99343.59;105381;1254;109968;-72
2023/04/27 08:41:57;;;;;;;16.60;4.90;;;;;;;9.90;57.29;99347.52;105011;1254;100900;-72
2023/04/27 08:44:25;;;;;;;9.50;4.00;;;;;;;10.00;56.93;99348.33;105249;1257;107625;-71
2023/04/27 08:46:53;;;;;;;9.30;4.00;;;;;;;10.06;57.15;99344.17;105139;1257;96527;-73
2023/04/27 08:49:21;;;;;;;13.10;4.30;;;;;;;10.17;57.00;99341.52;105036;1254;97183;-71
2023/04/27 08:51:49;;;;;;;10.40;3.80;;;;;;;10.23;56.72;99333.65;105250;1256;110544;-72
2023/04/27 08:54:18;;;;;;;12.30;4.60;;;;;;;10.27;56.65;99334.98;105122;1257;100662;-71
2023/04/27 08:56:46;;;;;;;10.70;4.20;;;;;;;10.25;56.49;99337.09;105206;1267;107056;-71
2023/04/27 08:59:14;;;;;;;10.10;3.70;;;;;;;10.25;55.90;99333.05;105265;1266;96658;-71
2023/04/27 09:01:48;;;;;;;9.30;3.60;;;;;;;10.29;55.91;99328.70;105190;1254;97735;-72
2023/04/27 09:04:17;;;;;;;13.30;3.70;;;;;;;10.32;55.97;99330.64;105197;1266;109927;-74
2023/04/27 09:06:45;;;;;;;12.50;4.10;;;;;;;10.33;55.99;99330.94;105290;1258;100587;-72
2023/04/27 09:09:23;;;;;;;8.50;3.30;;;;;;;10.30;56.24;99326.48;105089;1266;107640;-71
2023/04/27 09:11:52;;;;;;;9.20;3.50;;;;;;;10.25;55.96;99322.88;105120;1256;97820;-72
2023/04/27 09:14:22;;;;;;;15.00;4.00;;;;;;;10.13;55.43;99322.83;105353;1257;96916;-72
2023/04/27 09:16:58;;;;;;;12.90;3.40;;;;;;;9.95;54.90;99326.14;105085;1257;109952;-71
2023/04/27 09:19:28;;;;;;;21.80;7.20;;;;;;;9.72;55.05;99333.27;105304;1254;101370;-72
2023/04/27 09:22:03;;;;;;;16.00;4.80;;;;;;;9.53;55.31;99334.31;105200;1257;107235;-73
2023/04/27 09:24:31;;;;;;;15.50;5.00;;;;;;;9.43;55.38;99335.16;105192;1254;98075;-72
2023/04/27 09:27:00;;;;;;;9.80;4.00;;;;;;;9.40;55.47;99340.45;105310;1256;98010;-71
2023/04/27 09:29:36;;;;;;;12.60;4.20;;;;;;;9.42;54.93;99339.09;105264;1256;109366;-76
2023/04/27 09:32:19;;;;;;;10.40;3.30;;;;;;;9.43;55.01;99338.88;105221;1256;101919;-71
2023/04/27 09:34:47;;;;;;;13.60;4.70;;;;;;;9.45;55.06;99341.05;105096;1254;107710;-73
2023/04/27 09:37:15;;;;;;;9.50;3.50;;;;;;;9.48;55.17;99335.52;105343;1258;96608;-78
2023/04/27 09:39:44;;;;;;;11.50;3.30;;;;;;;9.54;55.07;99334.09;105310;1254;96914;-73
2023/04/27 09:42:12;;;;;;;9.30;3.20;;;;;;;9.66;54.92;99329.09;105272;1254;109896;-72
2023/04/27 09:44:40;;;;;;;9.00;3.30;;;;;;;9.78;54.39;99327.73;105545;1253;100695;-72
2023/04/27 09:47:09;;;;;;;11.10;3.80;;;;;;;9.92;54.82;99326.48;105283;1265;105615;-72
2023/04/27 09:49:37;;;;;;;11.00;3.90;;;;;;;10.14;54.62;99328.79;105305;1257;96722;-72
2023/04/27 09:52:05;;;;;;;13.00;3.40;;;;;;;10.37;54.72;99327.63;105028;1256;97009;-71
2023/04/27 09:54:34;;;;;;;10.10;3.70;;;;;;;10.55;54.20;99328.91;105242;1255;109082;-77
2023/04/27 09:57:16;;;;;;;10.20;4.00;;;;;;;10.76;54.60;99325.73;105252;1256;100469;-74
2023/04/27 10:00:28;;;;;;;14.60;4.60;;;;;;;10.97;54.32;99325.16;105102;1267;107364;-71
2023/04/27 10:03:10;;;;;;;11.80;3.50;;;;;;;11.12;54.01;99325.85;104799;1265;96658;-73
2023/04/27 10:05:45;;;;;;;15.50;4.20;;;;;;;11.20;54.19;99329.95;105256;1256;96683;-71
2023/04/27 10:08:13;;;;;;;13.60;3.80;;;;;;;11.26;54.16;99328.44;105293;1254;109438;-72
2023/04/27 10:10:46;;;;;;;9.30;3.30;;;;;;;11.28;53.27;99326.86;105159;1258;100390;-75
2023/04/27 10:13:25;;;;;;;9.10;3.50;;;;;;;11.21;53.31;99325.08;105054;1257;107229;-79
2023/04/27 10:15:53;;;;;;;9.30;3.40;;;;;;;11.16;53.93;99325.56;105275;1258;97594;-72
2023/04/27 10:18:26;;;;;;;14.30;5.00;;;;;;;11.18;53.10;99329.91;105071;1256;97012;-72
2023/04/27 10:20:54;;;;;;;11.70;3.30;;;;;;;11.12;53.33;99329.02;105221;1256;109916;-71
2023/04/27 10:23:25;;;;;;;9.70;3.20;;;;;;;11.09;52.87;99328.20;105361;1257;100548;-71
2023/04/27 10:25:54;;;;;;;9.00;3.40;;;;;;;11.02;53.04;99324.80;105013;1260;107417;-72
2023/04/27 10:28:22;;;;;;;9.50;3.50;;;;;;;10.97;52.70;99320.52;105345;1254;96613;-72
2023/04/27 10:30:50;;;;;;;9.80;3.60;;;;;;;10.92;53.18;99317.67;105035;1257;96978;-71
2023/04/27 10:33:21;;;;;;;10.50;3.40;;;;;;;10.96;53.23;99315.62;105212;1258;109879;-70
2023/04/27 10:35:55;;;;;;;5.90;3.20;;;;;;;11.08;53.30;99311.63;105187;1254;100931;-74
2023/04/27 10:38:29;;;;;;;6.90;2.90;;;;;;;11.27;53.32;99315.94;105060;1257;107209;-71
2023/04/27 10:41:03;;;;;;;10.10;3.30;;;;;;;11.54;53.47;99316.16;105245;1254;97915;-72
2023/04/27 10:43:34;;;;;;;10.40;3.30;;;;;;;11.75;53.03;99311.91;105330;1257;96661;-75
2023/04/27 10:46:10;;;;;;;11.40;3.00;;;;;;;12.02;53.28;99309.45;105285;1256;109893;-71
2023/04/27 10:48:39;;;;;;;10.30;3.30;;;;;;;12.10;51.47;99305.73;105463;1256;101090;-73
2023/04/27 10:51:08;;;;;;;9.10;2.80;;;;;;;12.06;52.37;99305.24;105382;1253;106263;-72
2023/04/27 10:53:36;;;;;;;8.20;3.00;;;;;;;12.14;52.91;99301.79;105427;1251;96583;-71
2023/04/27 10:56:05;;;;;;;9.40;3.20;;;;;;;12.22;51.45;99303.77;105357;1250;96912;-73
2023/04/27 10:58:35;;;;;;;10.50;3.20;;;;;;;12.20;52.54;99304.92;105358;1256;108382;-71
2023/04/27 11:01:26;;;;;;;12.30;3.60;;;;;;;12.35;52.39;99307.55;105383;1257;99158;-73
2023/04/27 11:03:58;;;;;;;11.70;3.50;;;;;;;12.47;52.75;99307.84;105333;1256;108142;-72
2023/04/27 11:06:29;;;;;;;11.70;3.50;;;;;;;12.54;52.72;99306.96;105276;1256;96599;-72
2023/04/27 11:08:57;;;;;;;9.20;3.40;;;;;;;12.67;52.88;99309.92;105344;1254;96896;-72
2023/04/27 11:11:25;;;;;;;7.60;3.30;;;;;;;12.77;52.72;99310.72;105159;1257;109888;-72
2023/04/27 11:13:54;;;;;;;9.50;3.80;;;;;;;12.86;52.54;99313.77;105382;1254;100838;-71
2023/04/27 11:16:22;;;;;;;14.10;3.20;;;;;;;12.96;52.65;99314.80;105294;1257;107586;-71
2023/04/27 11:18:51;;;;;;;12.50;3.40;;;;;;;13.04;52.54;99311.61;105328;1253;96584;-71
2023/04/27 11:21:20;;;;;;;12.00;3.80;;;;;;;13.09;52.41;99310.90;105333;1255;97134;-71
2023/04/27 11:23:48;;;;;;;11.10;3.80;;;;;;;13.11;52.03;99318.38;105302;1264;109385;-71
2023/04/27 11:26:18;;;;;;;10.20;3.50;;;;;;;12.98;50.48;99324.38;105419;1255;100948;-73
2023/04/27 11:28:56;;;;;;;11.20;3.90;;;;;;;12.68;50.37;99323.50;105291;1266;107695;-80